Time;durP1;ratioP1;P1;durP2;ratioP2;P2;SDS_P1;SDS_P2;PMS_P1;PMS_P2;Temp;Humidity;BMP_temperature;BMP_pressure;BME280_temperature;BME280_humidity;BME280_pressure;Samples;Min_cycle;Max_cycle;Signal;HPM_P1;HPM_P2
2022/12/20 00:00:51;;;;;;;6.95;4.97;;;9.10;99.90;;;;;;7376212;19;20022;-44
2022/12/20 00:03:19;;;;;;;6.55;4.70;;;9.00;99.90;;;;;;7374002;19;20485;-45
2022/12/20 00:05:45;;;;;;;6.90;5.03;;;9.00;99.90;;;;;;7375735;19;20022;-46
2022/12/20 00:08:23;;;;;;;7.18;4.55;;;9.00;99.90;;;;;;7372865;19;21280;-45
2022/12/20 00:10:49;;;;;;;7.38;5.38;;;9.00;99.90;;;;;;7377087;19;20044;-45
2022/12/20 00:13:21;;;;;;;5.85;4.38;;;9.10;99.90;;;;;;7374361;19;20026;-45
2022/12/20 00:15:49;;;;;;;6.80;4.78;;;9.00;99.90;;;;;;7377907;19;20023;-46
2022/12/20 00:18:16;;;;;;;7.03;5.10;;;9.00;99.90;;;;;;7375315;19;20109;-44
2022/12/20 00:20:42;;;;;;;6.75;4.90;;;9.10;99.90;;;;;;7378572;19;20534;-46
2022/12/20 00:23:09;;;;;;;5.97;4.45;;;9.20;99.90;;;;;;7378073;19;20010;-43
2022/12/20 00:25:35;;;;;;;9.25;5.32;;;9.20;99.90;;;;;;7374449;19;20015;-44
2022/12/20 00:28:03;;;;;;;7.25;5.03;;;9.20;99.90;;;;;;7374958;19;20520;-44
2022/12/20 00:30:29;;;;;;;6.30;5.07;;;9.30;99.90;;;;;;7373747;19;20026;-45
2022/12/20 00:32:55;;;;;;;7.05;4.57;;;9.30;99.90;;;;;;7374157;19;20019;-44
2022/12/20 00:35:23;;;;;;;5.93;4.22;;;9.30;99.90;;;;;;7377243;19;20018;-44
2022/12/20 00:37:51;;;;;;;7.70;4.85;;;9.30;99.90;;;;;;7375991;19;20014;-46
2022/12/20 00:40:17;;;;;;;7.85;4.80;;;9.30;99.90;;;;;;7374593;19;20010;-46
2022/12/20 00:42:45;;;;;;;6.28;4.85;;;9.40;99.90;;;;;;7378544;19;20051;-44
2022/12/20 00:45:11;;;;;;;8.20;4.63;;;9.50;99.90;;;;;;7372039;19;20018;-45
2022/12/20 00:47:37;;;;;;;6.35;4.30;;;9.50;99.90;;;;;;7371468;19;20018;-45
2022/12/20 00:50:04;;;;;;;6.85;4.53;;;9.50;99.90;;;;;;7374562;19;20450;-44
2022/12/20 00:52:34;;;;;;;8.18;4.68;;;9.50;99.90;;;;;;7371777;19;20039;-47
2022/12/20 00:55:00;;;;;;;5.20;4.00;;;9.50;99.90;;;;;;7378821;19;20025;-44
2022/12/20 00:57:26;;;;;;;7.75;4.28;;;9.50;99.90;;;;;;7372785;19;20018;-45
2022/12/20 00:59:52;;;;;;;6.35;4.55;;;9.40;99.90;;;;;;7376399;19;20819;-43
2022/12/20 01:02:19;;;;;;;8.82;4.50;;;9.50;99.90;;;;;;7373736;19;20029;-45
2022/12/20 01:04:48;;;;;;;9.00;4.20;;;9.50;99.90;;;;;;7371682;19;20042;-45
2022/12/20 01:07:15;;;;;;;7.15;4.70;;;9.40;99.90;;;;;;7374688;19;20557;-43
2022/12/20 01:09:41;;;;;;;6.38;3.78;;;9.40;99.90;;;;;;7372939;19;20097;-45
2022/12/20 01:12:07;;;;;;;7.18;4.30;;;9.40;99.90;;;;;;7368396;19;20102;-45
2022/12/20 01:14:34;;;;;;;5.88;4.15;;;9.40;99.90;;;;;;7371030;19;20467;-44
2022/12/20 01:17:00;;;;;;;6.30;4.10;;;9.40;99.90;;;;;;7374353;19;20015;-45
2022/12/20 01:19:26;;;;;;;5.63;3.97;;;9.40;99.90;;;;;;7371570;19;20015;-49
2022/12/20 01:22:00;;;;;;;6.82;4.13;;;9.30;99.90;;;;;;7372343;19;20018;-47
2022/12/20 01:24:27;;;;;;;6.18;3.97;;;9.30;99.90;;;;;;7372544;19;20014;-45
2022/12/20 01:26:53;;;;;;;6.32;3.90;;;9.30;99.90;;;;;;7374758;19;20026;-45
2022/12/20 01:29:20;;;;;;;6.40;4.57;;;9.30;99.90;;;;;;7371438;19;20021;-47
2022/12/20 01:31:46;;;;;;;6.95;4.07;;;9.30;99.90;;;;;;7369841;19;20101;-44
2022/12/20 01:34:14;;;;;;;6.13;3.92;;;9.40;99.90;;;;;;7372551;19;20018;-46
2022/12/20 01:36:41;;;;;;;6.68;3.53;;;9.40;99.90;;;;;;7372582;19;20027;-46
2022/12/20 01:39:14;;;;;;;7.15;5.13;;;9.40;99.90;;;;;;7376510;19;20428;-47
2022/12/20 01:41:42;;;;;;;6.63;3.85;;;9.40;99.90;;;;;;7372848;19;20026;-46
2022/12/20 01:44:18;;;;;;;6.63;3.97;;;9.40;99.90;;;;;;7374742;19;20046;-48
2022/12/20 01:46:46;;;;;;;6.00;4.50;;;9.30;99.90;;;;;;7370172;19;20015;-45
2022/12/20 01:49:20;;;;;;;5.70;4.10;;;9.40;99.90;;;;;;7373395;19;20359;-49
2022/12/20 01:51:50;;;;;;;5.15;3.33;;;9.30;99.90;;;;;;7374549;19;20025;-45
2022/12/20 01:54:30;;;;;;;4.57;3.35;;;9.40;99.90;;;;;;7370536;19;20022;-48
2022/12/20 01:57:03;;;;;;;6.85;3.95;;;9.40;99.90;;;;;;7370291;19;20415;-45
2022/12/20 01:59:34;;;;;;;5.95;3.72;;;9.40;99.90;;;;;;7370390;19;20608;-47
2022/12/20 02:02:08;;;;;;;4.93;3.60;;;9.40;99.90;;;;;;7369098;19;20045;-46
2022/12/20 02:04:35;;;;;;;7.55;4.78;;;9.40;99.90;;;;;;7365356;19;20021;-45
2022/12/20 02:07:03;;;;;;;6.05;4.00;;;9.40;99.90;;;;;;7371820;19;20607;-45
2022/12/20 02:09:32;;;;;;;6.13;4.35;;;9.40;99.90;;;;;;7370343;19;20018;-46
2022/12/20 02:12:01;;;;;;;5.60;3.88;;;9.40;99.90;;;;;;7371848;19;20367;-45
2022/12/20 02:14:43;;;;;;;6.03;3.55;;;9.40;99.90;;;;;;7369583;19;20026;-49
2022/12/20 02:17:27;;;;;;;6.32;3.67;;;9.50;99.90;;;;;;7372467;19;20025;-45
2022/12/20 02:19:56;;;;;;;7.57;4.40;;;9.50;99.90;;;;;;7371469;19;20018;-47
2022/12/20 02:22:58;;;;;;;6.07;4.05;;;9.50;99.90;;;;;;7370940;19;20022;-44
2022/12/20 02:25:47;;;;;;;5.77;3.77;;;9.50;99.90;;;;;;7366424;19;20102;-45
2022/12/20 02:28:36;;;;;;;4.93;3.55;;;9.60;99.90;;;;;;7370439;19;20350;-45
2022/12/20 02:31:08;;;;;;;5.90;3.97;;;9.50;99.90;;;;;;7373867;19;20026;-47
2022/12/20 02:33:35;;;;;;;6.35;3.67;;;9.50;99.90;;;;;;7370025;19;20051;-45
2022/12/20 02:36:03;;;;;;;6.40;4.00;;;9.60;99.90;;;;;;7372175;19;20339;-46
2022/12/20 02:38:31;;;;;;;5.35;3.65;;;9.60;99.90;;;;;;7367981;19;20579;-46
2022/12/20 02:41:23;;;;;;;5.35;3.97;;;9.50;99.90;;;;;;7369154;19;20022;-46
2022/12/20 02:46:41;;;;;;;5.47;3.47;;;9.50;99.90;;;;;;7369650;19;20391;-47
2022/12/20 02:49:15;;;;;;;6.63;4.10;;;9.50;99.90;;;;;;7372186;19;20025;-47
2022/12/20 02:51:45;;;;;;;6.22;4.20;;;9.50;99.90;;;;;;7372762;19;20486;-47
2022/12/20 02:54:19;;;;;;;7.47;4.18;;;9.50;99.90;;;;;;7366823;19;20018;-48
2022/12/20 02:57:05;;;;;;;7.20;4.10;;;9.50;99.90;;;;;;7371749;19;20056;-48
2022/12/20 02:59:40;;;;;;;6.55;4.47;;;9.40;99.90;;;;;;7367457;19;20106;-46
2022/12/20 03:02:08;;;;;;;7.38;4.80;;;9.40;99.90;;;;;;7372435;19;20052;-44
2022/12/20 03:04:38;;;;;;;6.57;4.28;;;9.30;99.90;;;;;;7368287;19;20542;-47
2022/12/20 03:07:07;;;;;;;6.57;5.20;;;9.30;99.90;;;;;;7367592;19;20154;-45
2022/12/20 03:09:36;;;;;;;6.22;4.40;;;9.30;99.90;;;;;;7364413;19;20018;-44
2022/12/20 03:12:04;;;;;;;7.40;5.15;;;9.20;99.90;;;;;;7367729;19;20053;-47
2022/12/20 03:14:33;;;;;;;7.82;5.20;;;9.20;99.90;;;;;;7368684;19;20496;-43
2022/12/20 03:17:01;;;;;;;7.30;5.18;;;9.20;99.90;;;;;;7367997;19;20485;-44
2022/12/20 03:19:27;;;;;;;7.30;5.43;;;9.20;99.90;;;;;;7368440;19;20533;-44
2022/12/20 03:21:54;;;;;;;7.05;5.15;;;9.20;99.90;;;;;;7368691;19;20023;-43
2022/12/20 03:24:21;;;;;;;7.07;4.63;;;9.20;99.90;;;;;;7369944;19;20037;-43
2022/12/20 03:26:48;;;;;;;8.30;6.25;;;9.20;99.90;;;;;;7369653;19;20030;-45
2022/12/20 03:29:15;;;;;;;7.55;4.82;;;9.20;99.90;;;;;;7366672;19;20018;-45
2022/12/20 03:31:42;;;;;;;8.13;5.57;;;9.10;99.90;;;;;;7368721;19;20018;-47
2022/12/20 03:34:08;;;;;;;8.60;5.63;;;9.10;99.90;;;;;;7370523;19;20095;-43
2022/12/20 03:36:34;;;;;;;7.45;5.55;;;9.10;99.90;;;;;;7369115;19;20540;-44
2022/12/20 03:39:03;;;;;;;6.35;4.97;;;9.10;99.90;;;;;;7368662;19;20453;-44
2022/12/20 03:41:38;;;;;;;7.22;5.13;;;9.10;99.90;;;;;;7365276;19;20014;-44
2022/12/20 03:44:05;;;;;;;6.25;5.25;;;9.20;99.90;;;;;;7364965;19;20011;-44
2022/12/20 03:46:32;;;;;;;7.60;5.05;;;9.20;99.90;;;;;;7368317;19;20449;-44
2022/12/20 03:48:58;;;;;;;7.97;5.35;;;9.20;99.90;;;;;;7369373;19;20527;-45
2022/12/20 03:51:25;;;;;;;7.25;5.20;;;9.30;99.90;;;;;;7366594;19;21124;-45
2022/12/20 03:53:58;;;;;;;13.20;5.70;;;9.30;99.90;;;;;;7364053;19;20028;-44
2022/12/20 03:56:36;;;;;;;8.05;5.65;;;9.30;99.90;;;;;;7368871;19;20099;-44
2022/12/20 03:59:03;;;;;;;10.77;5.70;;;9.30;99.90;;;;;;7367971;19;20025;-44
2022/12/20 04:01:35;;;;;;;5.60;4.68;;;9.30;99.90;;;;;;7368842;19;20067;-43
2022/12/20 04:04:02;;;;;;;10.70;5.00;;;9.40;99.90;;;;;;7369640;19;20446;-43
2022/12/20 04:06:28;;;;;;;11.45;6.32;;;9.50;99.90;;;;;;7382071;19;20011;-44
2022/12/20 04:08:55;;;;;;;6.60;5.63;;;9.50;99.90;;;;;;7374023;19;20543;-45
2022/12/20 04:11:27;;;;;;;8.55;5.53;;;9.50;99.90;;;;;;7375323;19;20029;-44
2022/12/20 04:14:14;;;;;;;9.10;6.18;;;9.50;99.90;;;;;;7376569;19;20041;-44
2022/12/20 04:16:41;;;;;;;9.27;6.05;;;9.50;99.90;;;;;;7374607;19;20014;-45
2022/12/20 04:19:10;;;;;;;9.68;5.80;;;9.50;99.90;;;;;;7373443;19;20022;-45
2022/12/20 04:21:42;;;;;;;8.95;6.40;;;9.50;99.90;;;;;;7373545;19;20014;-48
2022/12/20 04:24:09;;;;;;;7.90;5.60;;;9.50;99.90;;;;;;7376454;19;20023;-47
2022/12/20 04:27:02;;;;;;;9.43;5.43;;;9.50;99.90;;;;;;7372922;19;20018;-47
2022/12/20 04:29:28;;;;;;;8.93;5.68;;;9.40;99.90;;;;;;7374879;19;20856;-44
2022/12/20 04:31:56;;;;;;;9.15;5.55;;;9.40;99.90;;;;;;7373502;19;20029;-45
2022/12/20 04:34:22;;;;;;;6.80;5.65;;;9.40;99.90;;;;;;7375530;19;20372;-44
2022/12/20 04:36:48;;;;;;;7.18;5.40;;;9.50;99.90;;;;;;7377814;19;20027;-46
2022/12/20 04:39:23;;;;;;;8.38;6.38;;;9.50;99.90;;;;;;7378737;19;20014;-44
2022/12/20 04:42:11;;;;;;;7.63;5.30;;;9.50;99.90;;;;;;7373105;19;20022;-45
2022/12/20 04:44:37;;;;;;;9.88;5.75;;;9.50;99.90;;;;;;7373119;19;20637;-45
2022/12/20 04:47:04;;;;;;;8.05;5.28;;;9.50;99.90;;;;;;7374521;19;20015;-44
2022/12/20 04:49:32;;;;;;;7.28;5.82;;;9.40;99.90;;;;;;7372559;19;20019;-45
2022/12/20 04:53:46;;;;;;;11.20;6.10;;;9.50;99.90;;;;;;7371773;19;20026;-46
2022/12/20 04:54:46;;;;;;;6.75;5.35;;;9.60;99.90;;;;;;7370674;19;20386;-47
2022/12/20 04:57:17;;;;;;;9.80;5.88;;;9.50;99.90;;;;;;7375272;19;20014;-48
2022/12/20 04:59:44;;;;;;;6.65;4.95;;;9.60;99.90;;;;;;7372074;19;20022;-47
2022/12/20 05:02:12;;;;;;;7.07;5.30;;;9.70;99.90;;;;;;7374708;19;20042;-45
2022/12/20 05:04:47;;;;;;;7.03;5.00;;;9.80;99.90;;;;;;7372807;19;20054;-44
2022/12/20 05:07:13;;;;;;;7.72;5.50;;;9.80;99.90;;;;;;7375685;19;20039;-45
2022/12/20 05:09:44;;;;;;;8.30;4.88;;;9.80;99.90;;;;;;7373480;19;20034;-46
2022/12/20 05:12:10;;;;;;;7.00;5.60;;;9.80;99.90;;;;;;7374405;19;20022;-46
2022/12/20 05:14:37;;;;;;;10.75;4.75;;;9.90;99.90;;;;;;7373701;19;20026;-44
2022/12/20 05:17:03;;;;;;;7.30;4.80;;;9.90;99.90;;;;;;7370617;19;20355;-44
2022/12/20 05:19:30;;;;;;;6.10;4.90;;;9.90;99.90;;;;;;7372738;19;20621;-44
2022/12/20 05:27:37;;;;;;;5.65;4.07;;;10.00;99.90;;;;;;7371022;19;20110;-45
2022/12/20 05:30:04;;;;;;;8.68;4.65;;;10.00;99.90;;;;;;7371729;19;20022;-44
2022/12/20 05:32:31;;;;;;;6.15;4.20;;;10.10;99.90;;;;;;7370975;19;20018;-46
2022/12/20 05:34:58;;;;;;;7.47;4.43;;;10.00;99.90;;;;;;7371478;19;20026;-45
2022/12/20 05:37:45;;;;;;;6.30;4.15;;;10.10;99.90;;;;;;7373306;19;20014;-46
2022/12/20 05:40:36;;;;;;;7.38;4.53;;;10.10;99.90;;;;;;7372110;19;20032;-45
2022/12/20 05:43:23;;;;;;;6.70;4.30;;;10.10;99.90;;;;;;7368830;19;20588;-46
2022/12/20 05:46:10;;;;;;;7.38;3.80;;;10.10;99.90;;;;;;7370404;19;20019;-46
2022/12/20 05:48:49;;;;;;;5.55;3.78;;;10.10;99.90;;;;;;7370007;19;20029;-46
2022/12/20 05:51:16;;;;;;;5.03;4.03;;;10.10;99.90;;;;;;7361221;19;20015;-45
2022/12/20 05:53:58;;;;;;;6.38;4.47;;;10.10;99.90;;;;;;7366265;19;20019;-44
2022/12/20 05:56:44;;;;;;;5.88;4.05;;;10.10;99.90;;;;;;7371417;19;20103;-44
2022/12/20 05:59:11;;;;;;;7.32;3.97;;;10.00;99.90;;;;;;7372409;19;20105;-45
2022/12/20 06:01:38;;;;;;;5.32;4.00;;;10.00;99.90;;;;;;7366180;19;20093;-44
2022/12/20 06:04:06;;;;;;;5.72;3.85;;;9.90;99.90;;;;;;7364512;19;20019;-44
2022/12/20 06:06:33;;;;;;;7.68;4.45;;;10.00;99.90;;;;;;7371293;19;20026;-44
2022/12/20 06:09:00;;;;;;;5.53;4.03;;;10.00;99.90;;;;;;7371696;19;20018;-44
2022/12/20 06:11:39;;;;;;;6.13;3.90;;;10.00;99.90;;;;;;7371274;19;20490;-45
2022/12/20 06:14:08;;;;;;;5.68;3.78;;;10.10;99.90;;;;;;7341002;19;20026;-45
2022/12/20 06:16:41;;;;;;;6.13;4.10;;;10.10;99.90;;;;;;7341661;19;20616;-45
2022/12/20 06:19:10;;;;;;;5.65;3.92;;;10.10;99.90;;;;;;7345123;19;20081;-46
2022/12/20 06:21:37;;;;;;;7.60;4.40;;;10.20;99.90;;;;;;7345197;19;20643;-44
2022/12/20 06:24:05;;;;;;;5.45;3.67;;;10.20;99.90;;;;;;7358946;19;20026;-46
2022/12/20 06:26:41;;;;;;;5.00;3.95;;;10.20;99.90;;;;;;7370552;19;20018;-45
2022/12/20 06:29:12;;;;;;;6.65;4.20;;;10.10;99.90;;;;;;7367936;19;20022;-44
2022/12/20 06:31:55;;;;;;;6.88;4.75;;;10.20;99.90;;;;;;7347298;19;20398;-45
2022/12/20 06:34:21;;;;;;;8.32;4.47;;;10.30;99.90;;;;;;7344820;19;20449;-44
2022/12/20 06:36:48;;;;;;;5.57;3.60;;;10.30;99.90;;;;;;7350654;19;20022;-46
2022/12/20 06:39:21;;;;;;;8.27;4.55;;;10.30;99.90;;;;;;7347480;19;20139;-45
2022/12/20 06:42:00;;;;;;;7.55;4.70;;;10.30;99.90;;;;;;7339797;19;20022;-43
2022/12/20 06:44:28;;;;;;;8.23;5.13;;;10.30;99.90;;;;;;7361169;19;20022;-44
2022/12/20 06:46:54;;;;;;;6.53;4.85;;;10.20;99.90;;;;;;7350290;19;20010;-44
2022/12/20 06:49:31;;;;;;;6.82;4.97;;;10.10;99.90;;;;;;7343929;19;20022;-44
2022/12/20 06:52:07;;;;;;;7.90;5.22;;;10.10;99.90;;;;;;7357127;19;20648;-45
2022/12/20 06:54:48;;;;;;;9.33;5.47;;;10.10;99.90;;;;;;7369121;19;20034;-44
2022/12/20 06:57:15;;;;;;;6.55;5.30;;;10.10;99.90;;;;;;7361711;19;20267;-44
2022/12/20 06:59:43;;;;;;;8.60;5.55;;;10.00;99.90;;;;;;7348192;19;20718;-44
2022/12/20 07:02:14;;;;;;;8.52;5.65;;;10.00;99.90;;;;;;7336684;19;20019;-46
2022/12/20 07:04:41;;;;;;;10.82;6.32;;;10.00;99.90;;;;;;7356301;19;20436;-50
2022/12/20 07:07:07;;;;;;;7.80;6.35;;;10.00;99.90;;;;;;7371595;19;20039;-45
2022/12/20 07:09:34;;;;;;;9.57;6.22;;;10.00;99.90;;;;;;7367982;19;20486;-43
2022/12/20 07:12:19;;;;;;;7.53;5.10;;;10.00;99.90;;;;;;7347350;19;20033;-43
2022/12/20 07:14:45;;;;;;;8.68;6.47;;;10.10;99.90;;;;;;7340766;19;20369;-44
2022/12/20 07:17:12;;;;;;;9.68;6.25;;;10.00;99.90;;;;;;7342774;19;20389;-46
2022/12/20 07:19:38;;;;;;;7.40;5.97;;;10.10;99.90;;;;;;7339601;19;20014;-46
2022/12/20 07:22:05;;;;;;;9.20;6.13;;;10.10;99.90;;;;;;7341821;19;20452;-44
2022/12/20 07:24:42;;;;;;;9.68;5.88;;;10.10;99.90;;;;;;7348601;19;20022;-44
2022/12/20 07:27:09;;;;;;;7.45;5.30;;;10.10;99.90;;;;;;7371029;19;20106;-44
2022/12/20 07:29:39;;;;;;;11.20;5.35;;;10.10;99.90;;;;;;7367714;19;20019;-44
2022/12/20 07:32:05;;;;;;;7.90;6.35;;;10.10;99.90;;;;;;7343632;19;20019;-43
2022/12/20 07:34:32;;;;;;;9.57;6.72;;;10.20;99.90;;;;;;7342712;19;20062;-44
2022/12/20 07:36:58;;;;;;;8.23;6.50;;;10.20;99.90;;;;;;7345026;19;20022;-45
2022/12/20 07:39:24;;;;;;;8.57;6.55;;;10.20;99.90;;;;;;7339945;19;20006;-44
2022/12/20 07:41:54;;;;;;;9.43;6.53;;;10.20;99.90;;;;;;7345757;19;20030;-45
2022/12/20 07:44:22;;;;;;;7.55;6.78;;;10.30;99.90;;;;;;7355963;19;20038;-45
2022/12/20 07:46:51;;;;;;;7.93;6.30;;;10.40;99.90;;;;;;7343595;19;20023;-46
2022/12/20 07:49:18;;;;;;;11.35;5.47;;;10.20;99.90;;;;;;7348841;19;20523;-44
2022/12/20 07:51:49;;;;;;;7.47;5.82;;;10.20;99.90;;;;;;7344099;19;20018;-44
2022/12/20 07:54:23;;;;;;;11.45;5.70;;;10.20;99.90;;;;;;7343984;19;20065;-44
2022/12/20 07:56:55;;;;;;;7.25;5.55;;;10.10;99.90;;;;;;7349751;19;20488;-44
2022/12/20 07:59:33;;;;;;;7.28;5.63;;;10.10;99.90;;;;;;7343699;19;20015;-45
2022/12/20 08:02:00;;;;;;;6.95;4.88;;;10.10;99.90;;;;;;7343678;19;20026;-45
2022/12/20 08:04:29;;;;;;;7.57;5.38;;;10.10;99.90;;;;;;7357203;19;20018;-44
2022/12/20 08:06:58;;;;;;;7.40;5.43;;;10.20;99.90;;;;;;7344068;19;20038;-43
2022/12/20 08:09:28;;;;;;;7.38;5.18;;;10.20;99.90;;;;;;7354928;19;21467;-44
2022/12/20 08:11:55;;;;;;;9.85;4.97;;;10.10;99.90;;;;;;7345599;19;20049;-45
2022/12/20 08:14:21;;;;;;;9.95;5.22;;;10.20;99.90;;;;;;7345362;19;20545;-47
2022/12/20 08:16:47;;;;;;;9.88;4.93;;;10.20;99.90;;;;;;7350301;19;20881;-45
2022/12/20 08:19:14;;;;;;;5.75;4.10;;;10.20;99.90;;;;;;7351708;19;20027;-44
2022/12/20 08:21:44;;;;;;;7.63;5.00;;;10.20;99.90;;;;;;7344974;19;20018;-45
2022/12/20 08:24:11;;;;;;;6.32;4.40;;;10.20;99.90;;;;;;7354297;19;20018;-44
2022/12/20 08:26:41;;;;;;;7.10;4.53;;;10.30;99.90;;;;;;7346661;19;20018;-48
2022/12/20 08:29:08;;;;;;;8.60;4.53;;;10.30;99.90;;;;;;7362799;19;20014;-45
2022/12/20 08:31:39;;;;;;;7.63;4.65;;;10.30;99.90;;;;;;7372354;19;20022;-45
2022/12/20 08:34:05;;;;;;;7.68;4.38;;;10.30;99.90;;;;;;7366938;19;20098;-44
2022/12/20 08:36:32;;;;;;;7.20;4.45;;;10.30;99.90;;;;;;7344335;19;20040;-43
2022/12/20 08:39:04;;;;;;;5.63;4.22;;;10.30;99.90;;;;;;7346544;19;20054;-47
2022/12/20 08:41:32;;;;;;;6.55;4.05;;;10.30;99.90;;;;;;7360363;19;20355;-45
2022/12/20 08:44:01;;;;;;;6.13;4.25;;;10.30;99.90;;;;;;7374298;19;20022;-44
2022/12/20 08:46:27;;;;;;;5.68;4.18;;;10.30;99.90;;;;;;7377535;19;20496;-48
2022/12/20 08:49:05;;;;;;;5.53;4.25;;;10.30;99.90;;;;;;7360774;19;20017;-44
2022/12/20 08:51:35;;;;;;;7.15;4.32;;;10.20;99.90;;;;;;7342488;19;20973;-44
2022/12/20 08:54:01;;;;;;;6.25;4.13;;;10.20;99.90;;;;;;7344489;19;20477;-47
2022/12/20 08:56:28;;;;;;;6.32;4.07;;;10.20;99.90;;;;;;7349163;19;20026;-45
2022/12/20 08:58:54;;;;;;;7.60;4.38;;;10.30;99.90;;;;;;7350622;19;20399;-45
2022/12/20 09:01:21;;;;;;;6.95;5.55;;;10.20;99.90;;;;;;7351692;19;20035;-45
2022/12/20 09:03:48;;;;;;;5.85;3.90;;;10.30;99.90;;;;;;7368447;19;20023;-44
2022/12/20 09:06:17;;;;;;;6.55;4.40;;;10.30;99.90;;;;;;7376646;19;20018;-46
2022/12/20 09:08:44;;;;;;;6.70;3.83;;;10.30;99.90;;;;;;7372014;19;20018;-44
2022/12/20 09:11:17;;;;;;;5.30;3.65;;;10.30;99.90;;;;;;7375289;19;20027;-45
2022/12/20 09:13:45;;;;;;;8.52;4.25;;;10.30;99.90;;;;;;7364097;19;20358;-46
2022/12/20 09:16:18;;;;;;;7.13;4.15;;;10.30;99.90;;;;;;7375787;19;20018;-46
2022/12/20 09:18:48;;;;;;;6.03;4.05;;;10.30;99.90;;;;;;7374349;19;20022;-44
2022/12/20 09:21:15;;;;;;;7.38;4.20;;;10.30;99.90;;;;;;7370226;19;20026;-43
2022/12/20 09:23:42;;;;;;;6.65;4.13;;;10.30;99.90;;;;;;7370587;19;20041;-44
2022/12/20 09:26:14;;;;;;;5.13;4.05;;;10.30;99.90;;;;;;7370826;19;20030;-46
2022/12/20 09:28:41;;;;;;;6.00;3.50;;;10.30;99.90;;;;;;7372481;19;20532;-45
2022/12/20 09:31:17;;;;;;;5.55;4.38;;;10.30;99.90;;;;;;7374391;19;20026;-45
2022/12/20 09:33:47;;;;;;;6.93;4.40;;;10.30;99.90;;;;;;7369762;19;20021;-44
2022/12/20 09:36:16;;;;;;;8.20;4.30;;;10.30;99.90;;;;;;7373252;19;20384;-45
2022/12/20 09:38:45;;;;;;;6.93;3.70;;;10.30;99.90;;;;;;7368857;19;20082;-44
2022/12/20 09:41:21;;;;;;;5.85;4.28;;;10.30;99.90;;;;;;7375198;19;20018;-45
2022/12/20 09:43:47;;;;;;;4.97;3.72;;;10.30;99.90;;;;;;7366513;19;20018;-45
2022/12/20 09:46:19;;;;;;;6.57;4.07;;;10.40;99.90;;;;;;7370996;19;20093;-44
2022/12/20 09:48:47;;;;;;;5.88;3.83;;;10.40;99.90;;;;;;7372670;19;20014;-48
2022/12/20 09:51:27;;;;;;;8.23;4.20;;;10.40;99.90;;;;;;7374962;19;20485;-45
2022/12/20 09:53:53;;;;;;;6.53;4.30;;;10.40;99.90;;;;;;7370586;19;20015;-46
2022/12/20 09:56:33;;;;;;;5.13;3.50;;;10.30;99.90;;;;;;7365902;19;20018;-45
2022/12/20 09:59:12;;;;;;;7.05;4.45;;;10.30;99.90;;;;;;7372964;19;20543;-44
2022/12/20 10:01:43;;;;;;;6.45;3.75;;;10.30;99.90;;;;;;7362973;19;20519;-43
2022/12/20 10:04:25;;;;;;;5.88;4.13;;;10.30;99.90;;;;;;7372070;19;20033;-43
2022/12/20 10:07:21;;;;;;;6.35;4.13;;;10.30;99.90;;;;;;7369280;19;20095;-45
2022/12/20 10:10:10;;;;;;;5.32;4.15;;;10.30;99.90;;;;;;7374721;19;20029;-43
2022/12/20 10:12:48;;;;;;;7.97;4.63;;;10.30;99.90;;;;;;7369823;19;20029;-42
2022/12/20 10:15:41;;;;;;;7.85;3.65;;;10.20;99.90;;;;;;7370511;19;20035;-44
2022/12/20 10:18:49;;;;;;;8.75;4.60;;;10.20;99.90;;;;;;7372341;19;20126;-42
2022/12/20 10:21:25;;;;;;;6.43;3.90;;;10.20;99.90;;;;;;7369452;19;20475;-45
2022/12/20 10:24:00;;;;;;;7.07;4.43;;;10.20;99.90;;;;;;7368550;19;20019;-44
2022/12/20 10:26:31;;;;;;;8.60;4.50;;;10.10;99.90;;;;;;7372733;19;20077;-43
2022/12/20 10:28:57;;;;;;;8.77;4.97;;;10.10;99.90;;;;;;7364247;19;20026;-43
2022/12/20 10:31:24;;;;;;;8.27;4.80;;;10.10;99.90;;;;;;7369578;19;20018;-45
2022/12/20 10:33:50;;;;;;;8.88;4.88;;;10.10;99.90;;;;;;7368400;19;20018;-46
2022/12/20 10:36:24;;;;;;;7.78;5.40;;;10.10;99.90;;;;;;7371098;19;20029;-45
2022/12/20 10:38:53;;;;;;;8.02;5.10;;;10.10;99.90;;;;;;7368887;19;20018;-44
2022/12/20 10:41:23;;;;;;;9.00;4.68;;;10.10;99.90;;;;;;7369006;19;20018;-43
2022/12/20 10:44:00;;;;;;;7.57;4.80;;;10.10;99.90;;;;;;7370934;19;20114;-43
2022/12/20 10:47:00;;;;;;;8.57;4.68;;;10.10;99.90;;;;;;7374185;19;20504;-45
2022/12/20 10:49:31;;;;;;;8.38;4.40;;;10.10;99.90;;;;;;7367174;19;20056;-43
2022/12/20 10:52:13;;;;;;;7.90;4.90;;;10.10;99.90;;;;;;7370094;19;20022;-45
2022/12/20 10:54:46;;;;;;;7.15;4.80;;;10.10;99.90;;;;;;7368074;19;20025;-44
2022/12/20 10:57:15;;;;;;;9.32;6.25;;;10.10;99.90;;;;;;7369716;19;20014;-44
2022/12/20 10:59:47;;;;;;;10.43;5.75;;;10.10;99.90;;;;;;7367397;19;20014;-46
2022/12/20 11:02:23;;;;;;;9.07;5.95;;;10.10;99.90;;;;;;7372831;19;20018;-43
2022/12/20 11:04:59;;;;;;;9.07;5.30;;;10.20;99.90;;;;;;7367440;19;20041;-46
2022/12/20 11:07:32;;;;;;;10.15;5.20;;;10.20;99.90;;;;;;7365404;19;20029;-44
2022/12/20 11:10:17;;;;;;;6.07;4.63;;;10.20;99.90;;;;;;7369869;19;20022;-45
2022/12/20 11:12:58;;;;;;;9.48;5.70;;;10.20;99.90;;;;;;7367857;19;20026;-44
2022/12/20 11:15:32;;;;;;;12.45;5.75;;;10.30;99.90;;;;;;7375759;19;20022;-44
2022/12/20 11:18:32;;;;;;;10.68;5.50;;;10.20;99.90;;;;;;7373743;19;20066;-45
2022/12/20 11:21:14;;;;;;;7.82;5.25;;;10.20;99.90;;;;;;7376386;19;20379;-44
2022/12/20 11:24:18;;;;;;;8.73;5.68;;;10.20;99.90;;;;;;7377859;19;20041;-44
2022/12/20 11:27:02;;;;;;;10.88;5.70;;;10.20;99.90;;;;;;7373370;19;20038;-43
2022/12/20 11:30:12;;;;;;;8.88;5.70;;;10.20;99.90;;;;;;7375070;19;20018;-44
2022/12/20 11:32:45;;;;;;;10.25;5.72;;;10.30;99.90;;;;;;7377950;19;20018;-44
2022/12/20 11:35:33;;;;;;;7.43;5.10;;;10.30;99.90;;;;;;7376308;19;20094;-40
2022/12/20 11:38:25;;;;;;;7.10;5.40;;;10.30;99.90;;;;;;7377262;19;20714;-43
2022/12/20 11:41:17;;;;;;;9.30;6.03;;;10.40;99.90;;;;;;7373690;19;20011;-45
2022/12/20 11:44:04;;;;;;;8.68;5.13;;;10.40;99.90;;;;;;7377762;19;20074;-45
2022/12/20 11:46:54;;;;;;;6.55;4.97;;;10.40;99.90;;;;;;7378525;19;20482;-47
2022/12/20 11:49:48;;;;;;;8.20;6.07;;;10.40;99.90;;;;;;7375739;19;20026;-44
2022/12/20 11:52:42;;;;;;;9.27;5.97;;;10.40;99.90;;;;;;7379414;19;20034;-43
2022/12/20 11:55:21;;;;;;;10.00;5.40;;;10.40;99.90;;;;;;7377686;19;20425;-43
2022/12/20 11:57:56;;;;;;;7.28;5.82;;;10.40;99.90;;;;;;7375303;19;20881;-43
2022/12/20 12:00:27;;;;;;;9.43;5.57;;;10.40;99.90;;;;;;7375980;19;20022;-44
2022/12/20 12:03:02;;;;;;;7.70;5.65;;;10.40;99.90;;;;;;7371654;19;20068;-43
2022/12/20 12:05:40;;;;;;;11.10;5.97;;;10.40;99.90;;;;;;7372720;19;20026;-43
2022/12/20 12:08:12;;;;;;;;;;;10.40;99.90;;;;;;7377701;19;20496;-43
2022/12/20 12:10:43;;;;;;;8.15;6.15;;;10.40;99.90;;;;;;7374922;19;19926;-43
2022/12/20 12:13:17;;;;;;;9.50;5.67;;;10.30;99.90;;;;;;7370105;19;20067;-43
2022/12/20 12:15:57;;;;;;;8.02;5.28;;;10.30;99.90;;;;;;7372222;19;20018;-44
2022/12/20 12:18:32;;;;;;;9.20;5.57;;;10.30;99.90;;;;;;7377716;19;20015;-43
2022/12/20 12:21:01;;;;;;;7.93;5.90;;;10.20;99.90;;;;;;7374322;19;20018;-43
2022/12/20 12:23:34;;;;;;;8.70;5.60;;;10.30;99.90;;;;;;7377989;19;20018;-44
2022/12/20 12:26:17;;;;;;;8.25;5.47;;;10.30;99.90;;;;;;7373219;19;20018;-45
2022/12/20 12:28:46;;;;;;;8.98;6.35;;;10.30;99.90;;;;;;7370183;19;20022;-42
2022/12/20 12:31:17;;;;;;;10.55;5.65;;;10.30;99.90;;;;;;7371890;19;20384;-42
2022/12/20 12:33:51;;;;;;;;;;;10.30;99.90;;;;;;7376238;19;20600;-46
2022/12/20 12:36:32;;;;;;;8.77;6.43;;;10.30;99.90;;;;;;7376100;19;20324;-45
2022/12/20 12:39:27;;;;;;;11.27;7.00;;;10.30;99.90;;;;;;7373951;19;20025;-44
2022/12/20 12:42:25;;;;;;;8.88;6.25;;;10.30;99.90;;;;;;7377376;19;20390;-44
2022/12/20 12:45:21;;;;;;;8.98;6.47;;;10.30;99.90;;;;;;7371539;19;20018;-45
2022/12/20 12:48:19;;;;;;;9.40;6.68;;;10.30;99.90;;;;;;7375030;19;20014;-42
2022/12/20 12:50:50;;;;;;;10.70;6.78;;;10.30;99.90;;;;;;7371797;19;20543;-43
2022/12/20 12:53:48;;;;;;;9.38;7.07;;;10.30;99.90;;;;;;7376483;19;20034;-43
2022/12/20 12:56:27;;;;;;;9.38;7.07;;;10.30;99.90;;;;;;7372748;19;20156;-42
2022/12/20 12:59:05;;;;;;;9.43;6.78;;;10.30;99.90;;;;;;7373245;19;20018;-42
2022/12/20 13:01:54;;;;;;;10.13;7.63;;;10.30;99.90;;;;;;7371734;19;20474;-43
2022/12/20 13:04:21;;;;;;;9.27;7.60;;;10.30;99.90;;;;;;7365238;19;20024;-44
2022/12/20 13:07:22;;;;;;;10.38;7.68;;;10.30;99.90;;;;;;7369546;19;20018;-42
2022/12/20 13:09:51;;;;;;;12.73;8.10;;;10.30;99.90;;;;;;7374911;19;20452;-42
2022/12/20 13:12:35;;;;;;;10.63;8.40;;;10.30;99.90;;;;;;7372257;19;20039;-44
2022/12/20 13:15:19;;;;;;;12.15;8.30;;;10.30;99.90;;;;;;7373475;19;20018;-43
2022/12/20 13:17:56;;;;;;;9.50;8.38;;;10.30;99.90;;;;;;7370005;19;20082;-45
2022/12/20 13:20:34;;;;;;;8.82;7.82;;;10.30;99.90;;;;;;7371678;19;20018;-44
2022/12/20 13:23:10;;;;;;;10.25;8.55;;;10.30;99.90;;;;;;7370742;19;20027;-43
2022/12/20 13:25:39;;;;;;;9.63;8.63;;;10.30;99.90;;;;;;7369712;19;20018;-43
2022/12/20 13:28:17;;;;;;;11.38;8.68;;;10.30;99.90;;;;;;7369328;19;20038;-44